sensor_id;sensor_type;location;lat;lon;timestamp;temperature;humidity
4643;DHT22;2334;48.710;9.622;2023-11-21T00:01:10;7.90;99.90
4643;DHT22;2334;48.710;9.622;2023-11-21T00:03:37;7.90;99.90
4643;DHT22;2334;48.710;9.622;2023-11-21T00:06:06;7.90;99.90
4643;DHT22;2334;48.710;9.622;2023-11-21T00:08:34;7.90;99.90
4643;DHT22;2334;48.710;9.622;2023-11-21T00:11:01;7.90;99.90
4643;DHT22;2334;48.710;9.622;2023-11-21T00:13:28;7.90;99.90
4643;DHT22;2334;48.710;9.622;2023-11-21T00:15:55;7.90;99.90
4643;DHT22;2334;48.710;9.622;2023-11-21T00:18:22;7.90;99.90
4643;DHT22;2334;48.710;9.622;2023-11-21T00:20:49;7.90;99.90
4643;DHT22;2334;48.710;9.622;2023-11-21T00:23:17;7.90;99.90
4643;DHT22;2334;48.710;9.622;2023-11-21T00:25:44;7.90;99.90
4643;DHT22;2334;48.710;9.622;2023-11-21T00:28:10;7.80;99.90
4643;DHT22;2334;48.710;9.622;2023-11-21T00:30:37;7.80;99.90
4643;DHT22;2334;48.710;9.622;2023-11-21T00:33:04;7.90;99.90
4643;DHT22;2334;48.710;9.622;2023-11-21T00:35:31;7.90;99.90
4643;DHT22;2334;48.710;9.622;2023-11-21T00:37:58;7.80;99.90
4643;DHT22;2334;48.710;9.622;2023-11-21T00:40:26;7.80;99.90
4643;DHT22;2334;48.710;9.622;2023-11-21T00:42:53;7.90;99.90
4643;DHT22;2334;48.710;9.622;2023-11-21T00:45:21;7.90;99.90
4643;DHT22;2334;48.710;9.622;2023-11-21T00:47:51;7.80;99.90
4643;DHT22;2334;48.710;9.622;2023-11-21T00:50:18;7.80;99.90
4643;DHT22;2334;48.710;9.622;2023-11-21T00:52:45;7.80;99.90
4643;DHT22;2334;48.710;9.622;2023-11-21T00:55:12;7.80;99.90
4643;DHT22;2334;48.710;9.622;2023-11-21T00:57:40;7.80;99.90
4643;DHT22;2334;48.710;9.622;2023-11-21T01:00:08;7.80;99.90
4643;DHT22;2334;48.710;9.622;2023-11-21T01:02:38;7.80;99.90
4643;DHT22;2334;48.710;9.622;2023-11-21T01:05:06;7.80;99.90
4643;DHT22;2334;48.710;9.622;2023-11-21T01:07:34;7.80;99.90
4643;DHT22;2334;48.710;9.622;2023-11-21T01:10:02;7.80;99.90
4643;DHT22;2334;48.710;9.622;2023-11-21T01:12:31;7.80;99.90
4643;DHT22;2334;48.710;9.622;2023-11-21T01:14:59;7.80;99.90
4643;DHT22;2334;48.710;9.622;2023-11-21T01:17:26;7.80;99.90
4643;DHT22;2334;48.710;9.622;2023-11-21T01:19:53;7.80;99.90
4643;DHT22;2334;48.710;9.622;2023-11-21T01:22:23;7.80;99.90
4643;DHT22;2334;48.710;9.622;2023-11-21T01:24:51;7.80;99.90
4643;DHT22;2334;48.710;9.622;2023-11-21T01:27:18;7.80;99.90
4643;DHT22;2334;48.710;9.622;2023-11-21T01:29:45;7.80;99.90
4643;DHT22;2334;48.710;9.622;2023-11-21T01:32:13;7.80;99.90
4643;DHT22;2334;48.710;9.622;2023-11-21T01:34:40;7.90;99.90
4643;DHT22;2334;48.710;9.622;2023-11-21T01:37:07;7.90;99.90
4643;DHT22;2334;48.710;9.622;2023-11-21T01:39:34;7.90;99.90
4643;DHT22;2334;48.710;9.622;2023-11-21T01:42:05;7.90;99.90
4643;DHT22;2334;48.710;9.622;2023-11-21T01:44:33;7.90;99.90
4643;DHT22;2334;48.710;9.622;2023-11-21T01:47:00;7.80;99.90
4643;DHT22;2334;48.710;9.622;2023-11-21T01:49:32;7.90;99.90
4643;DHT22;2334;48.710;9.622;2023-11-21T01:51:59;7.80;99.90
4643;DHT22;2334;48.710;9.622;2023-11-21T01:54:26;7.80;99.90
4643;DHT22;2334;48.710;9.622;2023-11-21T01:56:57;7.80;99.90
4643;DHT22;2334;48.710;9.622;2023-11-21T01:59:34;7.80;99.90
4643;DHT22;2334;48.710;9.622;2023-11-21T02:02:02;7.80;99.90
4643;DHT22;2334;48.710;9.622;2023-11-21T02:04:32;7.90;99.90
4643;DHT22;2334;48.710;9.622;2023-11-21T02:06:59;7.90;99.90
4643;DHT22;2334;48.710;9.622;2023-11-21T02:09:27;7.90;99.90
4643;DHT22;2334;48.710;9.622;2023-11-21T02:11:55;7.90;99.90
4643;DHT22;2334;48.710;9.622;2023-11-21T02:14:24;7.90;99.90
4643;DHT22;2334;48.710;9.622;2023-11-21T02:16:52;7.90;99.90
4643;DHT22;2334;48.710;9.622;2023-11-21T02:19:20;7.90;99.90
4643;DHT22;2334;48.710;9.622;2023-11-21T02:21:50;7.90;99.90
4643;DHT22;2334;48.710;9.622;2023-11-21T02:24:20;7.90;99.90
4643;DHT22;2334;48.710;9.622;2023-11-21T02:26:48;7.90;99.90
4643;DHT22;2334;48.710;9.622;2023-11-21T02:29:16;7.90;99.90
4643;DHT22;2334;48.710;9.622;2023-11-21T02:31:45;7.90;99.90
4643;DHT22;2334;48.710;9.622;2023-11-21T02:34:14;7.90;99.90
4643;DHT22;2334;48.710;9.622;2023-11-21T02:36:41;7.90;99.90
4643;DHT22;2334;48.710;9.622;2023-11-21T02:39:09;7.90;99.90
4643;DHT22;2334;48.710;9.622;2023-11-21T02:41:38;7.90;99.90
4643;DHT22;2334;48.710;9.622;2023-11-21T02:44:06;7.90;99.90
4643;DHT22;2334;48.710;9.622;2023-11-21T02:46:33;7.90;99.90
4643;DHT22;2334;48.710;9.622;2023-11-21T02:49:00;7.90;99.90
4643;DHT22;2334;48.710;9.622;2023-11-21T02:51:27;7.90;99.90
4643;DHT22;2334;48.710;9.622;2023-11-21T02:53:55;7.90;99.90
4643;DHT22;2334;48.710;9.622;2023-11-21T02:56:24;7.90;99.90
4643;DHT22;2334;48.710;9.622;2023-11-21T02:58:55;7.90;99.90
4643;DHT22;2334;48.710;9.622;2023-11-21T03:01:23;7.90;99.90
4643;DHT22;2334;48.710;9.622;2023-11-21T03:03:50;7.90;99.90
4643;DHT22;2334;48.710;9.622;2023-11-21T03:06:17;7.80;99.90
4643;DHT22;2334;48.710;9.622;2023-11-21T03:08:44;7.90;99.90
4643;DHT22;2334;48.710;9.622;2023-11-21T03:11:11;7.90;99.90
4643;DHT22;2334;48.710;9.622;2023-11-21T03:13:39;7.90;99.90
4643;DHT22;2334;48.710;9.622;2023-11-21T03:16:09;7.90;99.90
4643;DHT22;2334;48.710;9.622;2023-11-21T03:18:36;7.90;99.90
4643;DHT22;2334;48.710;9.622;2023-11-21T03:21:03;7.90;99.90
4643;DHT22;2334;48.710;9.622;2023-11-21T03:23:30;7.90;99.90
4643;DHT22;2334;48.710;9.622;2023-11-21T03:25:58;7.80;99.90
4643;DHT22;2334;48.710;9.622;2023-11-21T03:28:25;7.80;99.90
4643;DHT22;2334;48.710;9.622;2023-11-21T03:30:52;7.80;99.90
4643;DHT22;2334;48.710;9.622;2023-11-21T03:33:20;7.90;99.90
4643;DHT22;2334;48.710;9.622;2023-11-21T03:35:48;7.80;99.90
4643;DHT22;2334;48.710;9.622;2023-11-21T03:38:15;7.80;99.90
4643;DHT22;2334;48.710;9.622;2023-11-21T03:40:42;7.80;99.90
4643;DHT22;2334;48.710;9.622;2023-11-21T03:43:09;7.80;99.90
4643;DHT22;2334;48.710;9.622;2023-11-21T03:45:36;7.80;99.90
4643;DHT22;2334;48.710;9.622;2023-11-21T03:48:03;7.80;99.90
4643;DHT22;2334;48.710;9.622;2023-11-21T03:50:31;7.80;99.90
4643;DHT22;2334;48.710;9.622;2023-11-21T03:52:58;7.80;99.90
4643;DHT22;2334;48.710;9.622;2023-11-21T03:55:25;7.80;99.90
4643;DHT22;2334;48.710;9.622;2023-11-21T03:57:52;7.80;99.90
4643;DHT22;2334;48.710;9.622;2023-11-21T04:00:19;7.80;99.90
4643;DHT22;2334;48.710;9.622;2023-11-21T04:02:46;7.80;99.90
4643;DHT22;2334;48.710;9.622;2023-11-21T04:05:13;7.80;99.90
4643;DHT22;2334;48.710;9.622;2023-11-21T04:07:41;7.80;99.90
4643;DHT22;2334;48.710;9.622;2023-11-21T04:10:09;7.80;99.90
4643;DHT22;2334;48.710;9.622;2023-11-21T04:12:38;7.80;99.90
4643;DHT22;2334;48.710;9.622;2023-11-21T04:15:06;7.80;99.90
4643;DHT22;2334;48.710;9.622;2023-11-21T04:17:35;7.80;99.90
4643;DHT22;2334;48.710;9.622;2023-11-21T04:20:02;7.90;99.90
4643;DHT22;2334;48.710;9.622;2023-11-21T04:22:33;7.80;99.90
4643;DHT22;2334;48.710;9.622;2023-11-21T04:25:02;7.90;99.90
4643;DHT22;2334;48.710;9.622;2023-11-21T04:27:29;7.90;99.90
4643;DHT22;2334;48.710;9.622;2023-11-21T04:29:55;7.90;99.90
4643;DHT22;2334;48.710;9.622;2023-11-21T04:32:22;7.90;99.90
4643;DHT22;2334;48.710;9.622;2023-11-21T04:34:49;7.80;99.90
4643;DHT22;2334;48.710;9.622;2023-11-21T04:37:16;7.80;99.90
4643;DHT22;2334;48.710;9.622;2023-11-21T04:39:43;7.80;99.90
4643;DHT22;2334;48.710;9.622;2023-11-21T04:42:11;7.80;99.90
4643;DHT22;2334;48.710;9.622;2023-11-21T04:44:38;7.80;99.90
4643;DHT22;2334;48.710;9.622;2023-11-21T04:47:06;7.80;99.90
4643;DHT22;2334;48.710;9.622;2023-11-21T04:49:34;7.90;99.90
4643;DHT22;2334;48.710;9.622;2023-11-21T04:52:01;7.90;99.90
4643;DHT22;2334;48.710;9.622;2023-11-21T04:54:30;7.90;99.90
4643;DHT22;2334;48.710;9.622;2023-11-21T04:56:57;7.90;99.90
4643;DHT22;2334;48.710;9.622;2023-11-21T04:59:25;7.90;99.90
4643;DHT22;2334;48.710;9.622;2023-11-21T05:01:53;7.90;99.90
4643;DHT22;2334;48.710;9.622;2023-11-21T05:04:20;7.90;99.90
4643;DHT22;2334;48.710;9.622;2023-11-21T05:06:47;7.90;99.90
4643;DHT22;2334;48.710;9.622;2023-11-21T05:09:15;7.90;99.90
4643;DHT22;2334;48.710;9.622;2023-11-21T05:11:42;7.90;99.90
4643;DHT22;2334;48.710;9.622;2023-11-21T05:14:09;7.90;99.90
4643;DHT22;2334;48.710;9.622;2023-11-21T05:16:37;7.90;99.90
4643;DHT22;2334;48.710;9.622;2023-11-21T05:19:04;7.90;99.90
4643;DHT22;2334;48.710;9.622;2023-11-21T05:21:32;7.90;99.90
4643;DHT22;2334;48.710;9.622;2023-11-21T05:23:59;7.90;99.90
4643;DHT22;2334;48.710;9.622;2023-11-21T05:26:25;7.90;99.90
4643;DHT22;2334;48.710;9.622;2023-11-21T05:28:53;7.90;99.90
4643;DHT22;2334;48.710;9.622;2023-11-21T05:31:20;7.90;99.90
4643;DHT22;2334;48.710;9.622;2023-11-21T05:33:48;7.90;99.90
4643;DHT22;2334;48.710;9.622;2023-11-21T05:36:17;7.90;99.90
4643;DHT22;2334;48.710;9.622;2023-11-21T05:38:46;7.80;99.90
4643;DHT22;2334;48.710;9.622;2023-11-21T05:41:13;7.80;99.90
4643;DHT22;2334;48.710;9.622;2023-11-21T05:43:40;7.80;99.90
4643;DHT22;2334;48.710;9.622;2023-11-21T05:46:07;7.80;99.90
4643;DHT22;2334;48.710;9.622;2023-11-21T05:48:34;7.80;99.90
4643;DHT22;2334;48.710;9.622;2023-11-21T05:51:04;7.80;99.90
4643;DHT22;2334;48.710;9.622;2023-11-21T05:53:31;7.80;99.90
4643;DHT22;2334;48.710;9.622;2023-11-21T05:55:58;7.80;99.90
4643;DHT22;2334;48.710;9.622;2023-11-21T05:58:25;7.80;99.90
4643;DHT22;2334;48.710;9.622;2023-11-21T06:00:52;7.70;99.90
4643;DHT22;2334;48.710;9.622;2023-11-21T06:03:18;7.60;99.90
4643;DHT22;2334;48.710;9.622;2023-11-21T06:05:45;7.60;99.90
4643;DHT22;2334;48.710;9.622;2023-11-21T06:08:13;7.50;99.90
4643;DHT22;2334;48.710;9.622;2023-11-21T06:10:42;7.50;99.90
4643;DHT22;2334;48.710;9.622;2023-11-21T06:13:10;7.50;99.90
4643;DHT22;2334;48.710;9.622;2023-11-21T06:15:37;7.50;99.90
4643;DHT22;2334;48.710;9.622;2023-11-21T06:18:04;7.60;99.90
4643;DHT22;2334;48.710;9.622;2023-11-21T06:20:35;7.60;99.90
4643;DHT22;2334;48.710;9.622;2023-11-21T06:23:03;7.60;99.90
4643;DHT22;2334;48.710;9.622;2023-11-21T06:25:32;7.70;99.90
4643;DHT22;2334;48.710;9.622;2023-11-21T06:28:02;7.70;99.90
4643;DHT22;2334;48.710;9.622;2023-11-21T06:30:29;7.70;99.90
4643;DHT22;2334;48.710;9.622;2023-11-21T06:32:55;7.70;99.90
4643;DHT22;2334;48.710;9.622;2023-11-21T06:35:22;7.70;99.90
4643;DHT22;2334;48.710;9.622;2023-11-21T06:37:49;7.70;99.90
4643;DHT22;2334;48.710;9.622;2023-11-21T06:40:17;7.70;99.90
4643;DHT22;2334;48.710;9.622;2023-11-21T06:42:46;7.70;99.90
4643;DHT22;2334;48.710;9.622;2023-11-21T06:45:13;7.70;99.90
4643;DHT22;2334;48.710;9.622;2023-11-21T06:47:40;7.80;99.90
4643;DHT22;2334;48.710;9.622;2023-11-21T06:50:08;7.80;99.90
4643;DHT22;2334;48.710;9.622;2023-11-21T06:52:35;7.80;99.90
4643;DHT22;2334;48.710;9.622;2023-11-21T06:55:02;7.80;99.90
4643;DHT22;2334;48.710;9.622;2023-11-21T06:57:29;7.80;99.90
4643;DHT22;2334;48.710;9.622;2023-11-21T06:59:57;7.80;99.90
4643;DHT22;2334;48.710;9.622;2023-11-21T07:02:24;7.80;99.90
4643;DHT22;2334;48.710;9.622;2023-11-21T07:04:51;7.80;99.90
4643;DHT22;2334;48.710;9.622;2023-11-21T07:07:18;7.80;99.90
4643;DHT22;2334;48.710;9.622;2023-11-21T07:09:45;7.80;99.90
4643;DHT22;2334;48.710;9.622;2023-11-21T07:12:13;7.80;99.90
4643;DHT22;2334;48.710;9.622;2023-11-21T07:14:40;7.80;99.90
4643;DHT22;2334;48.710;9.622;2023-11-21T07:17:11;7.80;99.90
4643;DHT22;2334;48.710;9.622;2023-11-21T07:19:37;7.80;99.90
4643;DHT22;2334;48.710;9.622;2023-11-21T07:22:04;7.80;99.90
4643;DHT22;2334;48.710;9.622;2023-11-21T07:24:32;7.90;99.90
4643;DHT22;2334;48.710;9.622;2023-11-21T07:26:58;7.90;99.90
4643;DHT22;2334;48.710;9.622;2023-11-21T07:29:26;7.90;99.90
4643;DHT22;2334;48.710;9.622;2023-11-21T07:31:55;7.90;99.90
4643;DHT22;2334;48.710;9.622;2023-11-21T07:34:23;7.90;99.90
4643;DHT22;2334;48.710;9.622;2023-11-21T07:36:50;7.90;99.90
4643;DHT22;2334;48.710;9.622;2023-11-21T07:39:17;8.00;99.90
4643;DHT22;2334;48.710;9.622;2023-11-21T07:41:44;8.00;99.90
4643;DHT22;2334;48.710;9.622;2023-11-21T07:44:14;8.10;99.90
4643;DHT22;2334;48.710;9.622;2023-11-21T07:46:42;8.10;99.90
4643;DHT22;2334;48.710;9.622;2023-11-21T07:49:09;8.20;99.90
4643;DHT22;2334;48.710;9.622;2023-11-21T07:51:38;8.20;99.90
4643;DHT22;2334;48.710;9.622;2023-11-21T07:54:05;8.20;99.90
4643;DHT22;2334;48.710;9.622;2023-11-21T07:56:32;8.20;99.90
4643;DHT22;2334;48.710;9.622;2023-11-21T07:58:59;8.30;99.90
4643;DHT22;2334;48.710;9.622;2023-11-21T08:01:26;8.30;99.90
4643;DHT22;2334;48.710;9.622;2023-11-21T08:03:53;8.30;99.90
4643;DHT22;2334;48.710;9.622;2023-11-21T08:06:22;8.40;99.90
4643;DHT22;2334;48.710;9.622;2023-11-21T08:08:52;8.40;99.90
4643;DHT22;2334;48.710;9.622;2023-11-21T08:11:19;8.50;99.90
4643;DHT22;2334;48.710;9.622;2023-11-21T08:13:47;8.50;99.90
4643;DHT22;2334;48.710;9.622;2023-11-21T08:16:14;8.60;99.90
4643;DHT22;2334;48.710;9.622;2023-11-21T08:18:42;8.60;99.90
4643;DHT22;2334;48.710;9.622;2023-11-21T08:21:09;8.60;99.90
4643;DHT22;2334;48.710;9.622;2023-11-21T08:23:37;8.70;99.90
4643;DHT22;2334;48.710;9.622;2023-11-21T08:26:06;8.70;99.90
4643;DHT22;2334;48.710;9.622;2023-11-21T08:28:34;8.60;99.90
4643;DHT22;2334;48.710;9.622;2023-11-21T08:31:01;8.60;99.90
4643;DHT22;2334;48.710;9.622;2023-11-21T08:33:28;8.60;99.90
4643;DHT22;2334;48.710;9.622;2023-11-21T08:35:55;8.50;99.90
4643;DHT22;2334;48.710;9.622;2023-11-21T08:38:22;8.70;99.90
4643;DHT22;2334;48.710;9.622;2023-11-21T08:40:49;8.70;99.90
4643;DHT22;2334;48.710;9.622;2023-11-21T08:43:17;8.80;99.90
4643;DHT22;2334;48.710;9.622;2023-11-21T08:45:45;8.70;99.90
4643;DHT22;2334;48.710;9.622;2023-11-21T08:48:12;8.80;99.90
4643;DHT22;2334;48.710;9.622;2023-11-21T08:50:39;8.90;99.90
4643;DHT22;2334;48.710;9.622;2023-11-21T08:53:06;9.00;99.90
4643;DHT22;2334;48.710;9.622;2023-11-21T08:55:32;9.00;99.90
4643;DHT22;2334;48.710;9.622;2023-11-21T08:58:03;8.90;99.90
4643;DHT22;2334;48.710;9.622;2023-11-21T09:00:32;8.70;99.90
4643;DHT22;2334;48.710;9.622;2023-11-21T09:03:01;8.80;99.90
4643;DHT22;2334;48.710;9.622;2023-11-21T09:05:29;8.80;99.90
4643;DHT22;2334;48.710;9.622;2023-11-21T09:07:55;8.90;99.90
4643;DHT22;2334;48.710;9.622;2023-11-21T09:10:22;8.80;99.90
4643;DHT22;2334;48.710;9.622;2023-11-21T09:12:51;8.80;99.90
4643;DHT22;2334;48.710;9.622;2023-11-21T09:15:18;8.80;99.90
4643;DHT22;2334;48.710;9.622;2023-11-21T09:17:47;8.80;99.90
4643;DHT22;2334;48.710;9.622;2023-11-21T09:20:14;8.90;99.90
4643;DHT22;2334;48.710;9.622;2023-11-21T09:22:41;8.90;99.90
4643;DHT22;2334;48.710;9.622;2023-11-21T09:25:10;9.00;99.90
4643;DHT22;2334;48.710;9.622;2023-11-21T09:27:38;9.00;99.90
4643;DHT22;2334;48.710;9.622;2023-11-21T09:30:06;9.10;99.90
4643;DHT22;2334;48.710;9.622;2023-11-21T09:32:35;9.00;99.90
4643;DHT22;2334;48.710;9.622;2023-11-21T09:35:04;9.00;99.90
4643;DHT22;2334;48.710;9.622;2023-11-21T09:37:33;9.00;99.90
4643;DHT22;2334;48.710;9.622;2023-11-21T09:40:01;9.00;99.90
4643;DHT22;2334;48.710;9.622;2023-11-21T09:42:32;9.00;99.90
4643;DHT22;2334;48.710;9.622;2023-11-21T09:45:06;9.00;99.90
4643;DHT22;2334;48.710;9.622;2023-11-21T09:47:38;9.00;99.90
4643;DHT22;2334;48.710;9.622;2023-11-21T09:50:07;8.90;99.90
4643;DHT22;2334;48.710;9.622;2023-11-21T09:52:44;9.00;99.90
4643;DHT22;2334;48.710;9.622;2023-11-21T09:55:17;9.00;99.90
4643;DHT22;2334;48.710;9.622;2023-11-21T09:57:47;9.00;99.90
4643;DHT22;2334;48.710;9.622;2023-11-21T10:00:16;9.00;99.90
4643;DHT22;2334;48.710;9.622;2023-11-21T10:02:45;9.00;99.90
4643;DHT22;2334;48.710;9.622;2023-11-21T10:05:15;9.00;99.90
4643;DHT22;2334;48.710;9.622;2023-11-21T10:07:43;9.00;99.90
4643;DHT22;2334;48.710;9.622;2023-11-21T10:10:13;9.10;99.90
4643;DHT22;2334;48.710;9.622;2023-11-21T10:12:48;9.00;99.90
4643;DHT22;2334;48.710;9.622;2023-11-21T10:15:16;9.00;99.90
4643;DHT22;2334;48.710;9.622;2023-11-21T10:17:44;9.00;99.90
4643;DHT22;2334;48.710;9.622;2023-11-21T10:20:14;9.00;99.90
4643;DHT22;2334;48.710;9.622;2023-11-21T10:22:42;9.10;99.90
4643;DHT22;2334;48.710;9.622;2023-11-21T10:25:09;9.20;99.90
4643;DHT22;2334;48.710;9.622;2023-11-21T10:27:40;9.10;99.90
4643;DHT22;2334;48.710;9.622;2023-11-21T10:30:08;9.20;99.90
4643;DHT22;2334;48.710;9.622;2023-11-21T10:32:37;9.20;99.90
4643;DHT22;2334;48.710;9.622;2023-11-21T10:35:06;9.20;99.90
4643;DHT22;2334;48.710;9.622;2023-11-21T10:37:37;9.20;99.90
4643;DHT22;2334;48.710;9.622;2023-11-21T10:40:06;9.30;99.90
4643;DHT22;2334;48.710;9.622;2023-11-21T10:42:34;9.30;99.90
4643;DHT22;2334;48.710;9.622;2023-11-21T10:45:01;9.30;99.90
4643;DHT22;2334;48.710;9.622;2023-11-21T10:47:31;9.40;99.90
4643;DHT22;2334;48.710;9.622;2023-11-21T10:50:00;9.50;99.90
4643;DHT22;2334;48.710;9.622;2023-11-21T10:52:28;9.50;99.90
4643;DHT22;2334;48.710;9.622;2023-11-21T10:54:56;9.50;99.90
4643;DHT22;2334;48.710;9.622;2023-11-21T10:57:25;9.50;99.90
4643;DHT22;2334;48.710;9.622;2023-11-21T10:59:54;9.70;99.90
4643;DHT22;2334;48.710;9.622;2023-11-21T11:02:23;10.00;99.90
4643;DHT22;2334;48.710;9.622;2023-11-21T11:04:54;10.20;99.90
4643;DHT22;2334;48.710;9.622;2023-11-21T11:07:25;10.30;99.90
4643;DHT22;2334;48.710;9.622;2023-11-21T11:09:53;10.10;99.90
4643;DHT22;2334;48.710;9.622;2023-11-21T11:12:22;10.10;99.90
4643;DHT22;2334;48.710;9.622;2023-11-21T11:14:49;10.30;99.90
4643;DHT22;2334;48.710;9.622;2023-11-21T11:17:17;10.40;99.90
4643;DHT22;2334;48.710;9.622;2023-11-21T11:19:46;10.50;99.90
4643;DHT22;2334;48.710;9.622;2023-11-21T11:22:24;10.50;99.90
4643;DHT22;2334;48.710;9.622;2023-11-21T11:25:08;10.50;99.90
4643;DHT22;2334;48.710;9.622;2023-11-21T11:27:49;10.40;99.90
4643;DHT22;2334;48.710;9.622;2023-11-21T11:30:27;10.30;99.90
4643;DHT22;2334;48.710;9.622;2023-11-21T11:33:06;10.30;99.90
4643;DHT22;2334;48.710;9.622;2023-11-21T11:35:46;10.20;99.90
4643;DHT22;2334;48.710;9.622;2023-11-21T11:38:16;10.20;99.90
4643;DHT22;2334;48.710;9.622;2023-11-21T11:40:46;10.30;99.90
4643;DHT22;2334;48.710;9.622;2023-11-21T11:43:25;10.30;99.90
4643;DHT22;2334;48.710;9.622;2023-11-21T11:45:55;10.30;99.90
4643;DHT22;2334;48.710;9.622;2023-11-21T11:48:22;10.10;99.90
4643;DHT22;2334;48.710;9.622;2023-11-21T11:51:01;10.10;99.90
4643;DHT22;2334;48.710;9.622;2023-11-21T11:53:35;10.00;99.90
4643;DHT22;2334;48.710;9.622;2023-11-21T11:56:26;9.90;99.90
4643;DHT22;2334;48.710;9.622;2023-11-21T11:58:56;9.90;99.90
4643;DHT22;2334;48.710;9.622;2023-11-21T12:01:25;9.90;99.90
4643;DHT22;2334;48.710;9.622;2023-11-21T12:04:23;9.90;99.90
4643;DHT22;2334;48.710;9.622;2023-11-21T12:06:57;10.00;99.90
4643;DHT22;2334;48.710;9.622;2023-11-21T12:09:26;9.90;99.90
4643;DHT22;2334;48.710;9.622;2023-11-21T12:11:54;10.00;99.90
4643;DHT22;2334;48.710;9.622;2023-11-21T12:14:23;10.00;99.90
4643;DHT22;2334;48.710;9.622;2023-11-21T12:16:51;10.00;99.90
4643;DHT22;2334;48.710;9.622;2023-11-21T12:19:19;10.00;99.90
4643;DHT22;2334;48.710;9.622;2023-11-21T12:21:47;10.00;99.90
4643;DHT22;2334;48.710;9.622;2023-11-21T12:24:14;10.00;99.90
4643;DHT22;2334;48.710;9.622;2023-11-21T12:26:42;10.00;99.90
4643;DHT22;2334;48.710;9.622;2023-11-21T12:29:09;10.00;99.90
4643;DHT22;2334;48.710;9.622;2023-11-21T12:31:38;10.00;99.90
4643;DHT22;2334;48.710;9.622;2023-11-21T12:34:05;10.00;99.90
4643;DHT22;2334;48.710;9.622;2023-11-21T12:36:32;10.10;99.90
4643;DHT22;2334;48.710;9.622;2023-11-21T12:39:00;10.10;99.90
4643;DHT22;2334;48.710;9.622;2023-11-21T12:41:28;10.10;99.90
4643;DHT22;2334;48.710;9.622;2023-11-21T12:43:56;10.20;99.90
4643;DHT22;2334;48.710;9.622;2023-11-21T12:46:23;10.20;99.90
4643;DHT22;2334;48.710;9.622;2023-11-21T12:48:52;10.20;99.90
4643;DHT22;2334;48.710;9.622;2023-11-21T12:51:21;10.30;99.90
4643;DHT22;2334;48.710;9.622;2023-11-21T12:53:48;10.20;99.90
4643;DHT22;2334;48.710;9.622;2023-11-21T12:56:24;10.20;99.90
4643;DHT22;2334;48.710;9.622;2023-11-21T12:58:56;10.20;99.90
4643;DHT22;2334;48.710;9.622;2023-11-21T13:01:28;10.20;99.90
4643;DHT22;2334;48.710;9.622;2023-11-21T13:03:57;10.20;99.90
4643;DHT22;2334;48.710;9.622;2023-11-21T13:06:24;10.20;99.90
4643;DHT22;2334;48.710;9.622;2023-11-21T13:08:51;10.20;99.90
4643;DHT22;2334;48.710;9.622;2023-11-21T13:11:19;10.20;99.90
4643;DHT22;2334;48.710;9.622;2023-11-21T13:13:46;10.20;99.90
4643;DHT22;2334;48.710;9.622;2023-11-21T13:16:13;10.20;99.90
4643;DHT22;2334;48.710;9.622;2023-11-21T13:18:41;10.20;99.90
4643;DHT22;2334;48.710;9.622;2023-11-21T13:21:09;10.20;99.90
4643;DHT22;2334;48.710;9.622;2023-11-21T13:23:39;10.00;99.90
4643;DHT22;2334;48.710;9.622;2023-11-21T13:26:07;10.00;99.90
4643;DHT22;2334;48.710;9.622;2023-11-21T13:28:34;10.00;99.90
4643;DHT22;2334;48.710;9.622;2023-11-21T13:31:03;9.90;99.90
4643;DHT22;2334;48.710;9.622;2023-11-21T13:33:35;10.00;99.90
4643;DHT22;2334;48.710;9.622;2023-11-21T13:36:04;9.90;99.90
4643;DHT22;2334;48.710;9.622;2023-11-21T13:38:34;9.80;99.90
4643;DHT22;2334;48.710;9.622;2023-11-21T13:41:03;9.80;99.90
4643;DHT22;2334;48.710;9.622;2023-11-21T13:43:33;9.80;99.90
4643;DHT22;2334;48.710;9.622;2023-11-21T13:46:00;9.70;99.90
4643;DHT22;2334;48.710;9.622;2023-11-21T13:48:38;9.80;99.90
4643;DHT22;2334;48.710;9.622;2023-11-21T13:51:08;9.80;99.90
4643;DHT22;2334;48.710;9.622;2023-11-21T13:53:44;9.80;99.90
4643;DHT22;2334;48.710;9.622;2023-11-21T13:56:13;9.70;99.90
4643;DHT22;2334;48.710;9.622;2023-11-21T13:58:44;9.70;99.90
4643;DHT22;2334;48.710;9.622;2023-11-21T14:01:16;9.80;99.90
4643;DHT22;2334;48.710;9.622;2023-11-21T14:04:08;9.80;99.90
4643;DHT22;2334;48.710;9.622;2023-11-21T14:06:45;9.80;99.90
4643;DHT22;2334;48.710;9.622;2023-11-21T14:09:15;9.80;99.90
4643;DHT22;2334;48.710;9.622;2023-11-21T14:11:49;9.80;99.90
4643;DHT22;2334;48.710;9.622;2023-11-21T14:14:17;9.70;99.90
4643;DHT22;2334;48.710;9.622;2023-11-21T14:16:44;9.70;99.90
4643;DHT22;2334;48.710;9.622;2023-11-21T14:19:11;9.70;99.90
4643;DHT22;2334;48.710;9.622;2023-11-21T14:21:41;9.70;99.90
4643;DHT22;2334;48.710;9.622;2023-11-21T14:24:09;9.70;99.90
4643;DHT22;2334;48.710;9.622;2023-11-21T14:26:40;9.70;99.90
4643;DHT22;2334;48.710;9.622;2023-11-21T14:29:07;9.80;99.90
4643;DHT22;2334;48.710;9.622;2023-11-21T14:31:36;9.90;99.90
4643;DHT22;2334;48.710;9.622;2023-11-21T14:34:03;9.80;99.90
4643;DHT22;2334;48.710;9.622;2023-11-21T14:36:32;9.70;99.90
4643;DHT22;2334;48.710;9.622;2023-11-21T14:38:58;9.70;99.90
4643;DHT22;2334;48.710;9.622;2023-11-21T14:41:25;9.70;99.90
4643;DHT22;2334;48.710;9.622;2023-11-21T14:43:55;9.70;99.90
4643;DHT22;2334;48.710;9.622;2023-11-21T14:46:23;9.60;99.90
4643;DHT22;2334;48.710;9.622;2023-11-21T14:48:49;9.50;99.90
4643;DHT22;2334;48.710;9.622;2023-11-21T14:51:25;9.50;99.90
4643;DHT22;2334;48.710;9.622;2023-11-21T14:54:21;9.50;99.90
4643;DHT22;2334;48.710;9.622;2023-11-21T14:57:04;9.30;99.90
4643;DHT22;2334;48.710;9.622;2023-11-21T14:59:34;9.30;99.90
4643;DHT22;2334;48.710;9.622;2023-11-21T15:01:59;9.20;99.90
4643;DHT22;2334;48.710;9.622;2023-11-21T15:04:40;9.20;99.90
4643;DHT22;2334;48.710;9.622;2023-11-21T15:07:08;9.30;99.90
4643;DHT22;2334;48.710;9.622;2023-11-21T15:09:34;9.20;99.90
4643;DHT22;2334;48.710;9.622;2023-11-21T15:12:05;9.20;99.90
4643;DHT22;2334;48.710;9.622;2023-11-21T15:14:42;9.20;99.90
4643;DHT22;2334;48.710;9.622;2023-11-21T15:17:11;9.10;99.90
4643;DHT22;2334;48.710;9.622;2023-11-21T15:19:41;9.00;99.90
4643;DHT22;2334;48.710;9.622;2023-11-21T15:22:09;9.00;99.90
4643;DHT22;2334;48.710;9.622;2023-11-21T15:24:38;9.00;99.90
4643;DHT22;2334;48.710;9.622;2023-11-21T15:27:07;8.90;99.90
4643;DHT22;2334;48.710;9.622;2023-11-21T15:29:34;8.90;99.90
4643;DHT22;2334;48.710;9.622;2023-11-21T15:32:02;8.90;99.90
4643;DHT22;2334;48.710;9.622;2023-11-21T15:34:29;8.90;99.90
4643;DHT22;2334;48.710;9.622;2023-11-21T15:36:57;8.90;99.90
4643;DHT22;2334;48.710;9.622;2023-11-21T15:39:24;8.80;99.90
4643;DHT22;2334;48.710;9.622;2023-11-21T15:41:55;8.80;99.90
4643;DHT22;2334;48.710;9.622;2023-11-21T15:44:22;8.80;99.90
4643;DHT22;2334;48.710;9.622;2023-11-21T15:46:51;8.80;99.90
4643;DHT22;2334;48.710;9.622;2023-11-21T15:49:19;8.80;99.90
4643;DHT22;2334;48.710;9.622;2023-11-21T15:51:48;8.80;99.90
4643;DHT22;2334;48.710;9.622;2023-11-21T15:54:19;8.80;99.90
4643;DHT22;2334;48.710;9.622;2023-11-21T15:56:47;8.80;99.90
4643;DHT22;2334;48.710;9.622;2023-11-21T15:59:14;8.70;99.90
4643;DHT22;2334;48.710;9.622;2023-11-21T16:01:41;8.70;99.90
4643;DHT22;2334;48.710;9.622;2023-11-21T16:04:12;8.70;99.90
4643;DHT22;2334;48.710;9.622;2023-11-21T16:06:43;8.70;99.90
4643;DHT22;2334;48.710;9.622;2023-11-21T16:09:11;8.80;99.90
4643;DHT22;2334;48.710;9.622;2023-11-21T16:11:47;8.80;99.90
4643;DHT22;2334;48.710;9.622;2023-11-21T16:14:14;8.80;99.90
4643;DHT22;2334;48.710;9.622;2023-11-21T16:16:42;8.80;99.90
4643;DHT22;2334;48.710;9.622;2023-11-21T16:19:09;8.80;99.90
4643;DHT22;2334;48.710;9.622;2023-11-21T16:21:36;8.80;99.90
4643;DHT22;2334;48.710;9.622;2023-11-21T16:24:05;8.90;99.90